Chiang Mai, Thailand

10:44 PM ICT on October 24, 2014 (GMT +0700)
ThaiWx Station | Change Station
CLOSE
Current Station
Personal Weather Station
Location: Chiang Mai, Pa Daet
Elevation: 1007 ft
Nearby Weather Stations

Elev 1007 ft 18.77 °N, 98.97 °E | Updated 1 minute ago

Partly Cloudy
Partly Cloudy
79.7 °F
Feels Like 83 °F
N
0.0
Wind Variable Wind from SW
Gusts 0.0 mph

Today
High -- | Low -- °F
--% Chance of Precip.
Yesterday
High -- | Low -- °F
Precip. -- in
6:20 AM 5:55 PM
New Moon, 1% visible
Pressure 29.98 in
Visibility 6.2 miles
Clouds Few 4000 ft
Heat Index 83 °F
Dew Point 72 °F
Humidity 77%
Rainfall 0.31 in
Snow Depth Not available.
UV 0 out of 12
Pollen Not available.
Air Quality Not available.
Flu Activity Not available.
METAR VTCC 241530Z 24003KT 9999 FEW040 25/21 Q1015 A2998 NOSIG

More Conditions Fewer Conditions

Pressure 29.98 in
Visibility 6.2 miles
Clouds Few 4000 ft
Heat Index 83 °F
Dew Point 72 °F
Humidity 77%
Rainfall 0.31 in
Snow Depth Not available.
UV 0 out of 12
Pollen Not available.
Air Quality Not available.
Flu Activity Not available.
METAR VTCC 241530Z 24003KT 9999 FEW040 25/21 Q1015 A2998 NOSIG

More Conditions Fewer Conditions

10-Day Weather Forecast

Almanac

Astronomy

Oct. 24, 2014 Rise Set
Actual Time 6:20 AM ICT 5:55 PM ICT
Civil Twilight 5:58 AM ICT 6:17 PM ICT
Nautical Twilight 5:32 AM ICT 6:43 PM ICT
Astronomical Twilight 5:07 AM ICT 7:09 PM ICT
Moon 6:28 AM ICT 6:18 PM ICT
Length of Visible Light 12h 19m
Length of Day
11h 34m
Tomorrow will be 0m 58s shorter.
New Moon, 1% of the Moon is Illuminated
Today
New Moon
Oct 30
First Quarter
Nov 6
Full
Nov 14
Last Quarter
Nov 22
New

Today's Extremes

Country Highs Country Lows

Community

WunderPhotos

Upload Photos

1,764,590 photos uploaded!

WunderBlogs® & News

Nearby

Snow Depth

Not available.

Earthquake Activity

City Distance Mag. Time & Date
No recent earthquake activity has been reported nearby.
Minimum magnitude displayed is 2.5.

Coastal Water Temperatures

Place Temperature
No Stations Reporting

Nearby Weather Stations